createdAt,value
2019-06-08T00:00:22.577Z,52.95
2019-06-08T00:02:51.695Z,52.72
2019-06-08T00:05:21.113Z,53.47
2019-06-08T00:07:50.356Z,54.04
2019-06-08T00:10:22.726Z,53.92
2019-06-08T00:12:50.624Z,55.47
2019-06-08T00:15:20.382Z,52.61
2019-06-08T00:17:49.500Z,53.08
2019-06-08T00:20:19.753Z,52.49
2019-06-08T00:22:48.907Z,53.50
2019-06-08T00:25:18.964Z,52.91
2019-06-08T00:27:48.635Z,53.00
2019-06-08T00:30:18.058Z,53.95
2019-06-08T00:32:47.132Z,53.12
2019-06-08T00:35:16.580Z,53.64
2019-06-08T00:37:46.042Z,52.78
2019-06-08T00:40:16.854Z,53.56
2019-06-08T00:42:45.928Z,52.82
2019-06-08T00:45:15.334Z,53.18
2019-06-08T00:47:48.071Z,53.59
2019-06-08T00:50:16.643Z,53.14
2019-06-08T00:52:45.830Z,53.85
2019-06-08T00:55:14.921Z,53.11
2019-06-08T00:57:43.974Z,53.44
2019-06-08T01:00:13.310Z,54.10
2019-06-08T01:02:42.426Z,54.30
2019-06-08T01:05:11.877Z,54.49
2019-06-08T01:07:40.912Z,54.17
2019-06-08T01:10:10.327Z,54.73
2019-06-08T01:12:39.422Z,54.44
2019-06-08T01:15:09.214Z,54.62
2019-06-08T01:17:38.583Z,54.89
2019-06-08T01:20:07.812Z,55.27
2019-06-08T01:22:37.079Z,55.63
2019-06-08T01:25:07.262Z,56.30
2019-06-08T01:27:36.370Z,56.50
2019-06-08T01:30:06.542Z,57.27
2019-06-08T01:32:35.823Z,58.06
2019-06-08T01:35:05.643Z,57.46
2019-06-08T01:37:34.701Z,57.51
2019-06-08T01:40:04.433Z,57.77
2019-06-08T01:42:33.707Z,58.14
2019-06-08T01:45:03.441Z,58.07
2019-06-08T01:47:33.273Z,58.40
2019-06-08T01:50:02.353Z,58.66
2019-06-08T01:52:32.953Z,58.78
2019-06-08T01:55:02.110Z,58.80
2019-06-08T01:57:31.584Z,59.24
2019-06-08T02:00:28.697Z,59.88
2019-06-08T02:02:32.050Z,59.64
2019-06-08T02:05:01.638Z,60.06
2019-06-08T02:07:30.725Z,60.30
2019-06-08T02:10:00.148Z,60.66
2019-06-08T02:12:29.271Z,60.29
2019-06-08T02:14:58.498Z,60.45
2019-06-08T02:17:27.618Z,60.61
2019-06-08T02:19:56.910Z,60.88
2019-06-08T02:22:26.780Z,61.62
2019-06-08T02:24:56.373Z,61.45
2019-06-08T02:27:25.657Z,62.12
2019-06-08T02:29:54.750Z,61.83
2019-06-08T02:32:26.067Z,61.70
2019-06-08T02:34:55.110Z,62.57
2019-06-08T02:37:24.334Z,61.39
2019-06-08T02:39:53.687Z,61.04
2019-06-08T02:42:22.999Z,61.62
2019-06-08T02:44:52.226Z,61.75
2019-06-08T02:47:21.338Z,62.35
2019-06-08T02:49:50.469Z,62.35
2019-06-08T02:52:19.888Z,62.64
2019-06-08T02:54:49.165Z,63.27
2019-06-08T02:57:19.062Z,63.19
2019-06-08T02:59:49.338Z,63.29
2019-06-08T03:02:18.640Z,62.74
2019-06-08T03:04:47.785Z,63.09
2019-06-08T03:07:17.653Z,62.77
2019-06-08T03:09:47.172Z,62.39
2019-06-08T03:12:19.254Z,60.98
2019-06-08T03:14:49.254Z,60.72
2019-06-08T03:17:18.381Z,61.38
2019-06-08T03:19:47.508Z,61.30
2019-06-08T03:22:17.133Z,59.65
2019-06-08T03:24:46.531Z,60.74
2019-06-08T03:27:15.724Z,60.74
2019-06-08T03:29:44.857Z,61.08
2019-06-08T03:32:14.312Z,61.56
2019-06-08T03:34:54.055Z,61.55
2019-06-08T03:37:14.539Z,62.70
2019-06-08T03:39:45.303Z,63.04
2019-06-08T03:42:15.042Z,63.97
2019-06-08T03:44:44.932Z,64.55
2019-06-08T03:47:14.311Z,64.87
2019-06-08T03:49:54.856Z,65.07
2019-06-08T03:52:14.478Z,65.63
2019-06-08T03:54:45.269Z,65.98
2019-06-08T03:57:15.164Z,66.07
2019-06-08T03:59:46.134Z,66.00
2019-06-08T04:02:15.426Z,66.14
2019-06-08T04:04:46.285Z,66.42
2019-06-08T04:07:15.315Z,66.53
2019-06-08T04:09:45.922Z,66.96
2019-06-08T04:12:15.357Z,66.67
2019-06-08T04:14:46.446Z,67.53
2019-06-08T04:17:15.646Z,67.91
2019-06-08T04:20:08.279Z,67.60
2019-06-08T04:22:15.623Z,67.60
2019-06-08T04:24:46.510Z,67.61
2019-06-08T04:27:15.686Z,67.18
2019-06-08T04:29:46.136Z,66.73
2019-06-08T04:32:15.208Z,67.53
2019-06-08T04:34:45.547Z,66.33
2019-06-08T04:37:15.987Z,65.92
2019-06-08T04:39:46.902Z,64.19
2019-06-08T04:42:15.884Z,63.71
2019-06-08T04:44:46.754Z,62.01
2019-06-08T04:47:16.019Z,61.99
2019-06-08T04:49:47.238Z,61.46
2019-06-08T04:52:16.490Z,61.51
2019-06-08T04:54:47.563Z,59.57
2019-06-08T04:57:16.969Z,59.49
2019-06-08T04:59:47.991Z,58.99
2019-06-08T05:02:18.956Z,58.61
2019-06-08T05:04:49.463Z,57.13
2019-06-08T05:07:18.701Z,55.93
2019-06-08T05:09:49.334Z,55.26
2019-06-08T05:12:18.651Z,53.81
2019-06-08T05:14:49.159Z,52.76
2019-06-08T05:17:18.544Z,52.44
2019-06-08T05:19:47.668Z,53.20
2019-06-08T05:22:16.916Z,51.33
2019-06-08T05:24:47.433Z,51.35
2019-06-08T05:27:16.702Z,50.28
2019-06-08T05:29:45.786Z,49.61
2019-06-08T05:32:14.860Z,49.52
2019-06-08T05:34:45.755Z,50.03
2019-06-08T05:37:15.182Z,50.27
2019-06-08T05:39:45.758Z,49.48
2019-06-08T05:42:14.989Z,48.55
2019-06-08T05:44:44.036Z,48.71
2019-06-08T05:47:13.132Z,49.17
2019-06-08T05:49:42.243Z,49.45
2019-06-08T05:52:11.466Z,48.26
2019-06-08T05:54:41.784Z,47.53
2019-06-08T05:57:11.011Z,47.52
2019-06-08T05:59:40.197Z,47.04
2019-06-08T06:02:09.364Z,45.86
2019-06-08T06:04:38.468Z,47.66
2019-06-08T06:07:07.672Z,46.93
2019-06-08T06:09:37.002Z,47.15
2019-06-08T06:12:06.312Z,45.75
2019-06-08T06:14:36.966Z,43.96
2019-06-08T06:17:06.503Z,44.95
2019-06-08T06:19:35.945Z,43.87
2019-06-08T06:22:05.061Z,43.69
2019-06-08T06:24:34.314Z,44.76
2019-06-08T06:27:03.593Z,43.46
2019-06-08T06:29:32.658Z,43.14
2019-06-08T06:32:01.892Z,43.29
2019-06-08T06:34:31.226Z,43.33
2019-06-08T06:37:00.544Z,42.91
2019-06-08T06:39:29.681Z,43.87
2019-06-08T06:41:58.909Z,43.25
2019-06-08T06:44:28.004Z,42.70
2019-06-08T06:46:57.446Z,43.84
2019-06-08T06:49:26.596Z,43.85
2019-06-08T06:51:55.686Z,43.40
2019-06-08T06:54:24.983Z,43.14
2019-06-08T06:56:54.203Z,42.38
2019-06-08T06:59:23.356Z,42.64
2019-06-08T07:01:57.355Z,42.15
2019-06-08T07:04:25.528Z,43.06
2019-06-08T07:06:55.183Z,42.92
2019-06-08T07:09:24.336Z,42.23
2019-06-08T07:11:53.607Z,42.12
2019-06-08T07:14:22.713Z,43.34
2019-06-08T07:16:54.100Z,43.26
2019-06-08T07:19:23.184Z,44.12
2019-06-08T07:21:53.257Z,44.51
2019-06-08T07:24:23.505Z,43.60
2019-06-08T07:26:52.755Z,43.68
2019-06-08T07:29:21.871Z,42.97
2019-06-08T07:31:51.632Z,43.11
2019-06-08T07:34:22.157Z,44.11
2019-06-08T07:36:51.453Z,42.92
2019-06-08T07:39:21.704Z,42.54
2019-06-08T07:41:51.796Z,43.08
2019-06-08T07:44:20.929Z,43.29
2019-06-08T07:46:51.389Z,42.66
2019-06-08T07:49:20.430Z,43.83
2019-06-08T07:52:04.249Z,42.77
2019-06-08T07:54:20.941Z,40.36
2019-06-08T07:56:51.425Z,40.07
2019-06-08T07:59:20.911Z,39.45
2019-06-08T08:01:49.987Z,38.30
2019-06-08T08:04:19.023Z,38.97
2019-06-08T08:06:48.400Z,39.35
2019-06-08T08:09:17.491Z,39.57
2019-06-08T08:11:46.677Z,38.74
2019-06-08T08:14:15.705Z,39.09
2019-06-08T08:16:44.806Z,38.46
2019-06-08T08:19:14.070Z,38.14
2019-06-08T08:21:43.178Z,38.15
2019-06-08T08:24:12.535Z,37.81
2019-06-08T08:26:41.899Z,38.22
2019-06-08T08:29:11.992Z,38.38
2019-06-08T08:31:41.049Z,37.26
2019-06-08T08:34:10.222Z,38.75
2019-06-08T08:36:39.593Z,37.20
2019-06-08T08:39:08.820Z,36.71
2019-06-08T08:41:39.013Z,36.45
2019-06-08T08:44:08.517Z,34.80
2019-06-08T08:46:38.643Z,35.19
2019-06-08T08:49:12.303Z,33.33
2019-06-08T08:51:38.805Z,34.38
2019-06-08T08:54:08.675Z,33.55
2019-06-08T08:56:38.554Z,34.50
2019-06-08T08:59:10.433Z,33.59
2019-06-08T09:01:38.573Z,31.51
2019-06-08T09:04:08.787Z,32.06
2019-06-08T09:06:38.391Z,33.06
2019-06-08T09:09:08.884Z,32.81
2019-06-08T09:11:41.379Z,32.90
2019-06-08T09:14:13.735Z,32.20
2019-06-08T09:16:40.365Z,33.76
2019-06-08T09:19:09.458Z,34.53
2019-06-08T09:21:38.573Z,33.01
2019-06-08T09:24:07.821Z,34.12
2019-06-08T09:26:38.239Z,34.29
2019-06-08T09:29:11.060Z,33.88
2019-06-08T09:31:39.065Z,34.32
2019-06-08T09:34:14.452Z,35.16
2019-06-08T09:36:40.761Z,34.84
2019-06-08T09:39:12.938Z,35.63
2019-06-08T09:41:49.802Z,36.38
2019-06-08T09:44:19.130Z,35.53
2019-06-08T09:47:00.819Z,36.02
2019-06-08T09:49:27.987Z,35.61
2019-06-08T09:52:00.369Z,36.66
2019-06-08T09:54:28.368Z,36.49
2019-06-08T09:57:00.951Z,35.97
2019-06-08T09:59:28.981Z,36.27
2019-06-08T10:02:05.159Z,34.25
2019-06-08T10:04:31.567Z,33.71
2019-06-08T10:07:02.249Z,33.99
2019-06-08T10:09:31.519Z,33.09
2019-06-08T10:12:03.420Z,33.70
2019-06-08T10:14:31.960Z,33.30
2019-06-08T10:17:02.661Z,33.81
2019-06-08T10:19:31.983Z,33.59
2019-06-08T10:22:01.086Z,33.43
2019-06-08T10:24:30.131Z,34.02
2019-06-08T10:26:59.449Z,34.31
2019-06-08T10:29:28.461Z,33.37
2019-06-08T10:31:57.757Z,33.63
2019-06-08T10:34:29.695Z,34.59
2019-06-08T10:37:06.425Z,34.39
2019-06-08T10:39:30.011Z,34.54
2019-06-08T10:42:02.726Z,34.32
2019-06-08T10:44:29.998Z,34.94
2019-06-08T10:47:02.172Z,31.87
2019-06-08T10:49:30.080Z,34.69
2019-06-08T10:52:03.003Z,34.05
2019-06-08T10:54:30.079Z,31.33
2019-06-08T10:57:01.845Z,32.31
2019-06-08T10:59:30.316Z,31.88
2019-06-08T11:02:03.495Z,30.83
2019-06-08T11:04:30.425Z,30.88
2019-06-08T11:07:06.447Z,31.40
2019-06-08T11:09:30.491Z,32.03
2019-06-08T11:12:01.512Z,32.38
2019-06-08T11:14:30.911Z,30.43
2019-06-08T11:17:00.615Z,30.99
2019-06-08T11:19:30.175Z,31.41
2019-06-08T11:22:02.689Z,30.94
2019-06-08T11:24:30.614Z,31.41
2019-06-08T11:27:01.184Z,32.26
2019-06-08T11:29:30.716Z,31.97
2019-06-08T11:32:01.908Z,33.28
2019-06-08T11:34:31.529Z,31.35
2019-06-08T11:37:01.894Z,31.04
2019-06-08T11:39:31.760Z,30.93
2019-06-08T11:42:02.281Z,31.04
2019-06-08T11:44:31.372Z,32.58
2019-06-08T11:47:00.456Z,30.59
2019-06-08T11:49:29.632Z,30.32
2019-06-08T11:52:00.372Z,30.86
2019-06-08T11:54:37.096Z,30.55
2019-06-08T11:57:00.836Z,31.41
2019-06-08T11:59:30.881Z,30.40
2019-06-08T12:02:01.762Z,29.84
2019-06-08T12:04:31.218Z,29.15
2019-06-08T12:07:00.271Z,29.24
2019-06-08T12:09:29.392Z,30.13
2019-06-08T12:11:58.526Z,29.72
2019-06-08T12:14:28.032Z,29.37
2019-06-08T12:16:58.153Z,29.41
2019-06-08T12:19:28.401Z,28.64
2019-06-08T12:21:59.296Z,29.24
2019-06-08T12:24:40.827Z,29.18
2019-06-08T12:27:09.467Z,30.25
2019-06-08T12:29:30.532Z,28.90
2019-06-08T12:32:00.493Z,29.25
2019-06-08T12:34:29.634Z,29.68
2019-06-08T12:36:58.672Z,30.01
2019-06-08T12:39:28.235Z,29.25
2019-06-08T12:41:58.314Z,29.91
2019-06-08T12:44:29.171Z,30.53
2019-06-08T12:46:58.795Z,29.70
2019-06-08T12:49:28.000Z,30.34
2019-06-08T12:51:58.094Z,29.48
2019-06-08T12:54:28.363Z,30.21
2019-06-08T12:56:57.946Z,30.54
2019-06-08T12:59:28.356Z,30.67
2019-06-08T13:01:58.676Z,29.32
2019-06-08T13:04:28.666Z,30.37
2019-06-08T13:06:58.432Z,30.36
2019-06-08T13:09:29.862Z,29.05
2019-06-08T13:11:59.459Z,29.27
2019-06-08T13:14:28.609Z,28.19
2019-06-08T13:17:00.884Z,28.61
2019-06-08T13:19:29.129Z,28.43
2019-06-08T13:21:58.311Z,28.05
2019-06-08T13:24:28.549Z,27.38
2019-06-08T13:26:57.972Z,28.30
2019-06-08T13:29:28.059Z,28.08
2019-06-08T13:31:58.672Z,28.05
2019-06-08T13:34:28.471Z,28.96
2019-06-08T13:36:57.692Z,29.74
2019-06-08T13:39:27.987Z,30.25
2019-06-08T13:41:57.175Z,29.87
2019-06-08T13:44:27.875Z,29.71
2019-06-08T13:46:57.832Z,28.08
2019-06-08T13:49:30.821Z,28.14
2019-06-08T13:51:58.564Z,28.35
2019-06-08T13:54:31.100Z,27.67
2019-06-08T13:56:59.168Z,28.08
2019-06-08T13:59:30.770Z,28.44
2019-06-08T14:01:59.269Z,28.37
2019-06-08T14:04:28.483Z,28.24
2019-06-08T14:06:58.342Z,28.71
2019-06-08T14:09:31.506Z,28.62
2019-06-08T14:11:59.843Z,28.67
2019-06-08T14:14:29.327Z,29.09
2019-06-08T14:16:58.975Z,28.19
2019-06-08T14:19:29.696Z,28.42
2019-06-08T14:21:58.976Z,28.84
2019-06-08T14:24:34.121Z,31.11
2019-06-08T14:26:59.454Z,30.96
2019-06-08T14:29:29.288Z,31.78
2019-06-08T14:31:59.855Z,33.17
2019-06-08T14:34:30.887Z,32.56
2019-06-08T14:37:00.237Z,32.17
2019-06-08T14:39:31.570Z,31.77
2019-06-08T14:42:00.191Z,32.89
2019-06-08T14:44:32.109Z,31.82
2019-06-08T14:47:02.983Z,31.77
2019-06-08T14:49:34.856Z,32.42
2019-06-08T14:52:08.390Z,32.55
2019-06-08T14:54:38.606Z,32.44
2019-06-08T14:57:09.788Z,31.91
2019-06-08T14:59:39.172Z,32.79
2019-06-08T15:02:08.432Z,32.31
2019-06-08T15:04:40.067Z,32.73
2019-06-08T15:07:09.517Z,33.25
2019-06-08T15:09:38.838Z,31.97
2019-06-08T15:12:09.224Z,32.58
2019-06-08T15:14:38.936Z,33.80
2019-06-08T15:17:08.705Z,32.63
2019-06-08T15:19:37.926Z,33.18
2019-06-08T15:22:08.734Z,33.42
2019-06-08T15:24:38.070Z,33.40
2019-06-08T15:27:07.863Z,32.25
2019-06-08T15:29:37.810Z,32.85
2019-06-08T15:32:08.120Z,32.30
2019-06-08T15:34:38.258Z,33.07
2019-06-08T15:37:09.280Z,33.62
2019-06-08T15:39:39.190Z,33.02
2019-06-08T15:42:08.464Z,34.46
2019-06-08T15:44:38.370Z,34.28
2019-06-08T15:47:08.268Z,34.99
2019-06-08T15:49:39.119Z,35.05
2019-06-08T15:52:08.559Z,34.75
2019-06-08T15:54:40.681Z,33.73
2019-06-08T15:57:08.696Z,33.98
2019-06-08T15:59:41.609Z,34.30
2019-06-08T16:02:08.903Z,34.38
2019-06-08T16:04:38.024Z,34.51
2019-06-08T16:07:07.489Z,33.87
2019-06-08T16:09:36.825Z,33.29
2019-06-08T16:12:06.137Z,34.15
2019-06-08T16:14:35.209Z,34.32
2019-06-08T16:17:04.561Z,34.42
2019-06-08T16:19:33.748Z,34.32
2019-06-08T16:22:03.170Z,34.30
2019-06-08T16:24:32.307Z,34.50
2019-06-08T16:27:01.405Z,34.61
2019-06-08T16:29:30.895Z,34.49
2019-06-08T16:32:00.602Z,35.17
2019-06-08T16:34:29.683Z,34.87
2019-06-08T16:36:58.978Z,35.32
2019-06-08T16:39:28.615Z,34.82
2019-06-08T16:41:57.702Z,34.73
2019-06-08T16:44:28.039Z,34.03
2019-06-08T16:46:57.250Z,35.00
2019-06-08T16:49:27.106Z,35.34
2019-06-08T16:51:56.405Z,35.49
2019-06-08T16:54:25.515Z,34.41
2019-06-08T16:57:08.840Z,35.30
2019-06-08T16:59:25.380Z,34.54
2019-06-08T17:01:54.493Z,35.42
2019-06-08T17:04:23.697Z,35.78
2019-06-08T17:06:52.814Z,36.45
2019-06-08T17:09:21.932Z,36.37
2019-06-08T17:11:51.038Z,36.51
2019-06-08T17:14:20.231Z,36.55
2019-06-08T17:16:49.494Z,36.88
2019-06-08T17:19:18.729Z,36.00
2019-06-08T17:21:47.853Z,35.75
2019-06-08T17:24:17.323Z,36.58
2019-06-08T17:26:46.608Z,37.00
2019-06-08T17:29:15.683Z,36.95
2019-06-08T17:31:44.779Z,36.92
2019-06-08T17:34:13.939Z,36.50
2019-06-08T17:36:43.223Z,35.97
2019-06-08T17:39:12.337Z,36.65
2019-06-08T17:41:42.578Z,37.80
2019-06-08T17:44:11.915Z,38.44
2019-06-08T17:46:41.385Z,38.41
2019-06-08T17:49:11.711Z,37.39
2019-06-08T17:51:41.850Z,38.19
2019-06-08T17:54:11.152Z,38.31
2019-06-08T17:56:41.247Z,38.16
2019-06-08T17:59:10.538Z,36.96
2019-06-08T18:01:39.795Z,38.13
2019-06-08T18:04:09.082Z,38.78
2019-06-08T18:06:40.264Z,38.36
2019-06-08T18:09:09.361Z,38.00
2019-06-08T18:11:41.766Z,38.01
2019-06-08T18:14:10.277Z,38.16
2019-06-08T18:16:42.098Z,38.76
2019-06-08T18:19:28.337Z,38.46
2019-06-08T18:22:04.500Z,38.64
2019-06-08T18:24:29.608Z,38.93
2019-06-08T18:26:59.448Z,40.04
2019-06-08T18:29:28.955Z,40.31
2019-06-08T18:31:58.532Z,39.24
2019-06-08T18:34:28.471Z,39.47
2019-06-08T18:36:58.127Z,40.24
2019-06-08T18:39:28.679Z,40.40
2019-06-08T18:41:58.967Z,40.39
2019-06-08T18:44:28.733Z,39.91
2019-06-08T18:46:57.923Z,40.94
2019-06-08T18:49:28.883Z,40.80
2019-06-08T18:51:58.441Z,41.71
2019-06-08T18:54:28.060Z,42.16
2019-06-08T18:56:57.570Z,42.91
2019-06-08T18:59:28.648Z,43.09
2019-06-08T19:01:57.816Z,43.31
2019-06-08T19:04:30.707Z,44.06
2019-06-08T19:07:01.410Z,44.46
2019-06-08T19:09:31.119Z,44.71
2019-06-08T19:12:00.476Z,45.31
2019-06-08T19:14:30.061Z,45.69
2019-06-08T19:16:59.281Z,46.33
2019-06-08T19:19:31.328Z,46.55
2019-06-08T19:22:01.331Z,48.03
2019-06-08T19:24:30.161Z,48.90
2019-06-08T19:26:59.594Z,50.03
2019-06-08T19:29:29.077Z,51.05
2019-06-08T19:32:00.494Z,51.60
2019-06-08T19:34:33.262Z,52.54
2019-06-08T19:36:59.939Z,53.04
2019-06-08T19:39:29.219Z,53.93
2019-06-08T19:41:59.859Z,54.06
2019-06-08T19:44:29.250Z,54.21
2019-06-08T19:46:58.567Z,55.35
2019-06-08T19:49:28.341Z,58.96
2019-06-08T19:51:58.126Z,58.79
2019-06-08T19:54:27.401Z,57.70
2019-06-08T19:56:57.466Z,58.09
2019-06-08T19:59:27.645Z,57.90
2019-06-08T20:01:59.626Z,58.21
2019-06-08T20:04:27.865Z,58.67
2019-06-08T20:07:00.432Z,58.88
2019-06-08T20:09:28.483Z,59.29
2019-06-08T20:12:00.020Z,59.20
2019-06-08T20:14:28.496Z,59.65
2019-06-08T20:16:57.983Z,61.94
2019-06-08T20:19:28.843Z,62.93
2019-06-08T20:21:58.454Z,62.85
2019-06-08T20:24:27.925Z,62.46
2019-06-08T20:26:58.316Z,62.91
2019-06-08T20:29:28.460Z,63.52
2019-06-08T20:31:58.463Z,63.70
2019-06-08T20:34:27.660Z,64.18
2019-06-08T20:36:57.397Z,64.50
2019-06-08T20:39:27.689Z,64.78
2019-06-08T20:41:58.535Z,65.50
2019-06-08T20:44:30.178Z,65.65
2019-06-08T20:46:58.678Z,66.44
2019-06-08T20:49:27.994Z,66.67
2019-06-08T20:52:00.124Z,66.80
2019-06-08T20:54:28.038Z,66.96
2019-06-08T20:56:58.035Z,67.53
2019-06-08T20:59:33.142Z,67.58
2019-06-08T21:01:59.052Z,68.58
2019-06-08T21:04:28.585Z,68.69
2019-06-08T21:06:57.731Z,68.87
2019-06-08T21:09:27.841Z,69.12
2019-06-08T21:11:58.678Z,69.61
2019-06-08T21:14:28.376Z,69.59
2019-06-08T21:16:58.596Z,69.93
2019-06-08T21:19:28.263Z,70.09
2019-06-08T21:21:59.230Z,70.47
2019-06-08T21:24:28.379Z,70.88
2019-06-08T21:27:00.532Z,71.42
2019-06-08T21:29:46.881Z,71.50
2019-06-08T21:32:02.199Z,71.75
2019-06-08T21:34:30.977Z,72.14
2019-06-08T21:37:00.955Z,72.98
2019-06-08T21:39:30.255Z,73.24
2019-06-08T21:42:03.034Z,72.95
2019-06-08T21:44:32.067Z,72.66
2019-06-08T21:47:01.680Z,73.20
2019-06-08T21:49:31.222Z,73.36
2019-06-08T21:52:01.278Z,74.21
2019-06-08T21:54:31.589Z,73.89
2019-06-08T21:57:01.123Z,74.06
2019-06-08T21:59:30.398Z,74.35
2019-06-08T22:02:03.553Z,75.28
2019-06-08T22:04:30.435Z,74.90
2019-06-08T22:07:01.463Z,75.28
2019-06-08T22:09:30.749Z,75.28
2019-06-08T22:12:00.992Z,75.78
2019-06-08T22:14:30.124Z,76.42
2019-06-08T22:17:01.347Z,77.06
2019-06-08T22:19:30.626Z,76.72
2019-06-08T22:22:01.747Z,77.22
2019-06-08T22:24:30.679Z,77.25
2019-06-08T22:27:01.756Z,77.42
2019-06-08T22:29:30.818Z,77.43
2019-06-08T22:31:59.987Z,78.11
2019-06-08T22:34:29.104Z,78.22
2019-06-08T22:37:00.266Z,78.30
2019-06-08T22:39:29.210Z,78.52
2019-06-08T22:42:01.171Z,78.17
2019-06-08T22:44:29.592Z,78.25
2019-06-08T22:47:01.457Z,78.49
2019-06-08T22:49:29.498Z,78.69
2019-06-08T22:52:00.867Z,78.31
2019-06-08T22:54:29.544Z,78.09
2019-06-08T22:57:01.353Z,78.40
2019-06-08T22:59:29.417Z,78.79
2019-06-08T23:02:02.831Z,79.18
2019-06-08T23:04:31.671Z,79.35
2019-06-08T23:07:04.011Z,79.92
2019-06-08T23:09:31.585Z,80.17
2019-06-08T23:12:03.021Z,80.21
2019-06-08T23:14:32.105Z,80.52
2019-06-08T23:17:04.007Z,80.90
2019-06-08T23:19:34.135Z,80.85
2019-06-08T23:22:04.012Z,81.11
2019-06-08T23:24:33.122Z,81.26
2019-06-08T23:27:02.212Z,81.82
2019-06-08T23:29:31.282Z,81.94
2019-06-08T23:32:02.632Z,82.04
2019-06-08T23:34:31.215Z,82.84
2019-06-08T23:37:05.569Z,83.02
2019-06-08T23:39:31.137Z,83.03
2019-06-08T23:42:02.087Z,83.26
2019-06-08T23:44:31.400Z,83.43
2019-06-08T23:47:01.586Z,83.14
2019-06-08T23:49:31.846Z,83.47
2019-06-08T23:52:02.765Z,82.51
2019-06-08T23:54:32.158Z,83.20
2019-06-08T23:57:01.282Z,83.24
2019-06-08T23:59:30.487Z,82.84
